Las Vegas, Nevada (DRI) Weather observations

Data are for observation ending at time listed.
 Day   Time    Ave.   Ave.  Ave.  Vector   Max.   Stn.    Total    Solar   Ave.  
  of    of     Air    Rel.  Wind   Wind    Wind   Baro.  Precip.   Rad.    Soil  
Year   Day     Temp.  Hum.  Speed  Dir.    Gust   Pres.                    Temp. 
2026   (PST)    F      %     mph   deg.    mph     mb.     in.     W/m2     F   
------------------------------------------------------------------------------
 126   12:30   81.1    23    2.9   194      5.4   943.6    0.00     912    85.8
 126   12:40   82.2    22    2.6   209      6.4   943.5    0.00     904    86.4
 126   12:50   82.9    22    2.3   178      5.3   943.4    0.00     895    87.0
 126   13:00   85.3    20    1.2   210      5.6   943.3    0.00     885    87.7
 126   13:10   83.3    21    2.8    33      5.6   943.1    0.00     873    88.2
 126   13:20   82.1    22    3.3    50      8.1   943.0    0.00     857    88.9
 126   13:30   82.6    21    2.7    27      7.1   942.9    0.00     843    89.4
 126   13:40   83.4    20    1.9     2      5.7   942.7    0.00     828    89.9
 126   13:50   83.9    20    2.8    41      6.1   942.6    0.00     810    90.3
 126   14:00   84.1    20    2.7   200      5.7   942.4    0.00     790    90.7
 126   14:10   84.1    20    2.8   192      6.8   942.3    0.00     769    91.1
 126   14:20   86.5    19    1.4    52      5.8   942.1    0.00     748    91.5
 126   14:30   84.7    20    3.1   155      6.4   941.9    0.00     723    91.8
 126   14:40   86.0    19    1.7   183      5.3   941.9    0.00     697    92.1
 126   14:50   86.2    19    3.0   183      8.2   941.7    0.00     670    92.3
 126   15:00   85.6    19    2.7   183      5.3   941.6    0.00     644    92.4
 126   15:10   85.9    19    1.8   212      5.0   941.6    0.00     618    92.6
 126   15:20   86.5    18    2.4   184      5.9   941.5    0.00     590    92.6
 126   15:30   87.1    18    1.6   209      5.0   941.3    0.00     558    92.6
 126   15:40   86.4    19    3.2   187      6.9   941.2    0.00     526    92.5
 126   15:50   87.1    18    2.2   163      7.3   941.2    0.00     494    92.4
 126   16:00   88.3    18    1.1   265      3.7   941.2    0.00     462    92.3
 126   16:10   88.1    17    1.6   172      3.8   941.1    0.00     430    92.1
 126   16:20   88.1    17    1.1   124      4.3   941.1    0.00     397    92.0
 126   16:30   88.4    17    1.5    62      3.6   941.1    0.00     364    91.9
 126   16:40   88.1    17    1.8   194      4.6   941.0    0.00     330    91.7
 126   16:50   88.4    17    1.5   220      3.6   941.0    0.00     296    91.5
 126   17:00   88.1    17    2.1   197      4.0   941.1    0.00     263    91.4
 126   17:10   87.6    17    1.7   186      5.0   941.1    0.00     230    91.2
 126   17:20   87.2    17    1.7   197      4.2   941.0    0.00     199    91.0
 126   17:30   88.1    17    1.5   179      3.7   941.0    0.00     168    90.8
 126   17:40   88.1    17    1.4   180      4.6   941.1    0.00     138    90.5
 126   17:50   86.9    17    1.0    66      3.4   941.0    0.00     108    90.2
 126   18:00   85.0    18    1.7   176      6.2   941.1    0.00      36    89.9
 126   18:10   84.8    19    1.7   177      4.0   941.1    0.00      33    89.5
 126   18:20   84.2    19    0.5   177      2.1   941.2    0.00      17    89.2
 126   18:30   83.7    20    0.2   163      2.5   941.3    0.00       7    88.8
 126   18:40   83.3    19    0.2   258      2.6   941.4    0.00       3    88.4
 126   18:50   82.7    20    0.0   341      0.3   941.5    0.00       1    88.0
 126   19:00   82.0    20    0.0     0      0.0   941.6    0.00       0    87.7
 126   19:10   81.8    21    0.1   235      1.1   941.7    0.00       0    87.3
 126   19:20   81.4    21    0.1   233      0.7   941.8    0.00       0    86.9
 126   19:30   80.7    23    0.0     0      0.0   942.0    0.00       0    86.6
 126   19:40   80.6    22    0.8   234      3.7   942.2    0.00       0    86.3
 126   19:50   81.7    20    0.5   272      4.5   942.2    0.00       0    85.9
 126   20:00   81.4    23    0.0     0      0.0   942.3    0.00       0    85.6
 126   20:10   80.0    25    0.0     0      0.0   942.4    0.00       0    85.3
 126   20:20   78.9    27    0.0   211      1.5   942.5    0.00       0    85.1
 126   20:30   78.6    25    0.5   220      1.7   942.7    0.00       0    84.8
 126   20:40   78.9    24    0.3   182      1.7   942.7    0.00       0    84.5
 126   20:50   79.7    21    1.6   172      3.7   942.7    0.00       0    84.3
 126   21:00   80.0    21    1.7   168      2.9   942.8    0.00       0    84.0
 126   21:10   79.9    21    1.7   173      2.9   942.8    0.00       0    83.8
 126   21:20   79.7    21    2.1   180      3.7   942.9    0.00       0    83.5
 126   21:30   79.3    22    1.3   175      2.3   943.0    0.00       0    83.3
 126   21:40   78.8    22    0.2   147      1.2   943.1    0.00       0    83.1
 126   21:50   78.1    23    0.1   130      1.1   943.1    0.00       0    82.8
 126   22:00   77.5    24    0.0     0      0.0   943.3    0.00       0    82.7
 126   22:10   76.8    25    0.4   202      1.4   943.4    0.00       0    82.5
 126   22:20   76.5    25    0.3   214      1.2   943.5    0.00       0    82.3
 126   22:30   75.5    27    1.6   199      2.6   943.6    0.00       0    82.2
 126   22:40   75.7    25    1.7   178      2.7   943.8    0.00       0    82.0
 126   22:50   76.1    25    1.4   182      3.2   943.9    0.00       0    81.8
 126   23:00   75.8    25    0.9   165      2.3   944.0    0.00       0    81.6
 126   23:10   75.8    25    1.1   157      2.3   944.1    0.00       0    81.4
 126   23:20   76.5    24    2.6    38      8.3   944.3    0.00       0    81.2
 126   23:30   77.3    22    0.7    59      2.6   944.3    0.00       0    81.1
 126   23:40   77.6    19    1.3    40      3.4   944.3    0.00       0    80.9
 126   23:50   77.1    19    1.7    39      3.5   944.4    0.00       0    80.7
 127    0:00   76.4    20    1.2    30      2.3   944.5    0.00       0    80.6
 127    0:10   75.7    20    1.1    18      3.4   944.5    0.00       0    80.5
 127    0:20   75.2    21    0.7    18      1.8   944.6    0.00       0    80.4
 127    0:30   74.9    20    1.1     1      2.3   944.6    0.00       0    80.2
 127    0:40   74.8    20    0.9    30      2.8   944.6    0.00       0    80.1
 127    0:50   74.5    20    0.8    11      2.0   944.6    0.00       0    80.0
 127    1:00   74.2    19    0.8    16      1.5   944.6    0.00       0    79.8
 127    1:10   73.9    19    0.1    22      0.9   944.5    0.00       0    79.7
 127    1:20   73.3    19    0.1     9      0.9   944.5    0.00       0    79.5
 127    1:30   72.1    20    0.0     0      0.0   944.4    0.00       0    79.4
 127    1:40   71.6    20    0.1   175      1.7   944.4    0.00       0    79.2
 127    1:50   71.6    21    1.8   168      3.1   944.4    0.00       0    79.1
 127    2:00   71.4    21    0.0   135      0.6   944.5    0.00       0    78.9
 127    2:10   70.9    22    0.0   255      0.6   944.5    0.00       0    78.7
 127    2:20   71.7    23    0.5    11      1.5   944.6    0.00       0    78.6
 127    2:30   71.8    23    0.5    22      1.3   944.6    0.00       0    78.4
 127    2:40   71.3    23    0.8    19      1.8   944.7    0.00       0    78.3
 127    2:50   70.9    24    0.0    47      0.6   944.7    0.00       0    78.2
 127    3:00   71.0    23    0.3    15      1.5   944.7    0.00       0    78.0
 127    3:10   71.4    22    0.4   348      1.2   944.7    0.00       0    77.9
 127    3:20   71.2    21    0.0     0      0.0   944.8    0.00       0    77.7
 127    3:30   70.5    20    0.0     0      0.0   944.7    0.00       0    77.6
 127    3:40   70.0    21    0.0     0      0.0   944.8    0.00       0    77.5
 127    3:50   69.2    23    0.0     0      0.0   944.8    0.00       0    77.3
 127    4:00   68.7    24    0.0     0      0.0   944.8    0.00       0    77.2
 127    4:10   68.2    25    0.0     0      0.0   944.7    0.00       0    77.0
 127    4:20   67.9    25    0.0     0      0.0   944.7    0.00       0    76.9
 127    4:30   68.0    25    0.0     0      0.0   944.8    0.00       0    76.8
 127    4:40   67.5    27    0.0     0      0.0   944.9    0.00       2    76.6
 127    4:50   66.6    28    0.0     0      0.0   944.9    0.00       4    76.5
 127    5:00   67.8    24    0.8   360      1.9   945.0    0.00      10    76.4
 127    5:10   68.7    23    0.3    40      1.1   945.1    0.00      15    76.2
 127    5:20   68.4    24    0.0     0      0.0   945.2    0.00      22    76.1
 127    5:30   67.8    25    0.8   155      1.5   945.2    0.00      22    76.0
 127    5:40   68.1    25    0.1   161      1.7   945.4    0.00      21    75.9
 127    5:50   68.7    24    0.0     0      0.0   945.5    0.00      23    75.8
 127    6:00   69.2    24    0.1   190      1.0   945.6    0.00      24    75.7
 127    6:10   69.8    24    0.9   190      1.7   945.6    0.00      26    75.6
 127    6:20   70.3    22    0.4   186      1.3   945.7    0.00      28    75.5
 127    6:30   70.9    22    0.3   175      1.2   945.6    0.00      28    75.4
 127    6:40   71.4    21    0.6   175      2.2   945.7    0.00      29    75.4
 127    6:50   72.1    20    0.7   159      1.8   945.7    0.00      31    75.4
 127    7:00   72.6    20    0.6   155      2.4   945.6    0.00      32    75.4
 127    7:10   73.3    20    0.9   171      2.9   945.6    0.00      33    75.3
 127    7:20   73.9    19    0.6   169      2.5   945.6    0.00      35    75.3
 127    7:30   74.4    18    0.9   193      1.6   945.6    0.00      40    75.3
 127    7:40   75.0    19    0.5   118      3.2   945.5    0.00      40    75.2
 127    7:50   75.7    18    0.2   195      1.8   945.5    0.00      51    75.2
 127    8:00   76.2    18    0.8    85      3.6   945.4    0.00      92    75.1
 127    8:10   76.8    17    1.0    49      3.8   945.4    0.00      78    75.1
 127    8:20   76.9    16    1.8    49      3.6   945.4    0.00      93    75.1
 127    8:30   77.3    16    2.1    17      4.1   945.4    0.00      95    75.1
 127    8:40   77.9    15    1.9    55      3.8   945.3    0.00     233    75.1
 127    8:50   78.5    15    0.7    51      3.2   945.2    0.00     594    75.2
 127    9:00   79.1    14    1.2    44      5.9   945.1    0.00     558    75.2
 127    9:10   80.1    14    1.7    50      3.9   945.0    0.00     739    75.3
 127    9:20   81.0    13    0.9    58      3.8   944.9    0.00     764    75.4
 127    9:30   81.5    13    1.6    49      3.7   944.9    0.00     787    75.6
 127    9:40   82.5    12    1.2    30      3.1   944.8    0.00     810    75.8
 127    9:50   82.9    12    1.0    34      3.4   944.8    0.00     830    76.1
 127   10:00   82.8    12    1.3    31      4.3   944.7    0.00     847    76.5
 127   10:10   83.4    12    1.6    29      4.2   944.5    0.00     864    77.1
 127   10:20   84.1    12    2.2   185      4.8   944.3    0.00     879    77.8
 127   10:30   84.1    12    1.7   192      4.2   944.3    0.00     892    78.6
 127   10:40   85.5    12    0.9   131      2.9   944.1    0.00     905    79.5
 127   10:50   87.0    12    1.9   170      4.6   943.9    0.00     917    80.4
 127   11:00   85.9    12    2.0   187      5.2   943.8    0.00     924    81.4
 127   11:10   87.1    11    2.2   286      5.1   943.5    0.00     932    82.4
 127   11:20   87.7    12    2.3   178      6.1   943.3    0.00     938    83.3
 127   11:30   86.8    12    2.5   213      6.4   943.1    0.00     942    84.2
 127   11:40   87.5    12    2.7   205      5.6   943.0    0.00     945    85.0
 127   11:50   88.2    12    2.0   198      5.3   942.9    0.00     944    85.9
 127   12:00   88.5    12    2.8   173      6.6   942.7    0.00     943    86.7
 127   12:10   89.2    12    2.1   171      5.9   942.5    0.00     939    87.5
 127   12:20   90.2    12    1.9   193      4.3   942.4    0.00     934    88.3

Return to Las Vegas, Nevada graphs page.


Western Regional Climate Center,wrcc@dri.edu